createdAt,value
2018-02-27T00:02:10.513Z,8.38
2018-02-27T00:04:40.463Z,10.60
2018-02-27T00:07:09.546Z,9.00
2018-02-27T00:09:39.393Z,7.03
2018-02-27T00:12:08.466Z,6.93
2018-02-27T00:14:37.562Z,7.53
2018-02-27T00:17:06.677Z,9.88
2018-02-27T00:19:35.754Z,14.52
2018-02-27T00:22:04.842Z,12.98
2018-02-27T00:24:33.964Z,14.45
2018-02-27T00:27:03.037Z,14.65
2018-02-27T00:29:32.945Z,10.85
2018-02-27T00:32:03.521Z,9.50
2018-02-27T00:34:32.695Z,11.07
2018-02-27T00:37:01.873Z,11.02
2018-02-27T00:39:30.945Z,7.50
2018-02-27T00:42:00.797Z,9.75
2018-02-27T00:44:29.898Z,7.62
2018-02-27T00:46:59.769Z,10.82
2018-02-27T00:49:28.850Z,11.25
2018-02-27T00:51:57.962Z,13.70
2018-02-27T00:54:27.037Z,6.40
2018-02-27T00:56:56.873Z,10.48
2018-02-27T00:59:26.730Z,6.60
2018-02-27T01:01:55.821Z,7.05
2018-02-27T01:04:25.657Z,8.65
2018-02-27T01:06:58.982Z,8.10
2018-02-27T01:09:28.066Z,7.75
2018-02-27T01:11:57.901Z,7.78
2018-02-27T01:14:26.978Z,7.55
2018-02-27T01:16:56.050Z,7.57
2018-02-27T01:19:25.129Z,9.20
2018-02-27T01:21:54.378Z,8.40
2018-02-27T01:24:23.529Z,7.68
2018-02-27T01:26:53.373Z,13.90
2018-02-27T01:29:22.453Z,9.35
2018-02-27T01:31:51.534Z,6.75
2018-02-27T01:34:20.605Z,9.88
2018-02-27T01:36:49.717Z,14.40
2018-02-27T01:39:18.789Z,7.80
2018-02-27T01:41:47.870Z,8.15
2018-02-27T01:44:17.005Z,8.45
2018-02-27T01:46:46.850Z,10.23
2018-02-27T01:49:16.698Z,9.70
2018-02-27T01:51:45.815Z,10.07
2018-02-27T01:54:14.898Z,11.25
2018-02-27T01:56:44.165Z,10.90
2018-02-27T01:59:13.260Z,10.15
2018-02-27T02:01:42.366Z,7.18
2018-02-27T02:04:11.485Z,7.55
2018-02-27T02:06:41.393Z,8.73
2018-02-27T02:09:11.241Z,7.90
2018-02-27T02:11:40.322Z,8.75
2018-02-27T02:14:10.170Z,8.35
2018-02-27T02:16:39.253Z,11.52
2018-02-27T02:19:09.102Z,9.55
2018-02-27T02:21:38.473Z,9.95
2018-02-27T02:24:07.558Z,8.60
2018-02-27T02:26:36.633Z,8.75
2018-02-27T02:29:06.572Z,11.43
2018-02-27T02:31:35.691Z,9.38
2018-02-27T02:34:04.769Z,8.20
2018-02-27T02:36:34.614Z,10.60
2018-02-27T02:39:03.689Z,6.78
2018-02-27T02:41:32.775Z,14.15
2018-02-27T02:44:01.948Z,13.15
2018-02-27T02:46:31.033Z,15.73
2018-02-27T02:49:00.114Z,6.70
2018-02-27T02:51:29.192Z,13.32
2018-02-27T02:53:58.282Z,12.37
2018-02-27T02:56:27.417Z,22.42
2018-02-27T02:58:56.502Z,11.70
2018-02-27T03:01:25.594Z,11.73
2018-02-27T03:03:55.463Z,8.50
2018-02-27T03:06:24.606Z,10.13
2018-02-27T03:08:53.686Z,9.55
2018-02-27T03:11:22.767Z,8.57
2018-02-27T03:13:52.614Z,12.90
2018-02-27T03:16:21.757Z,11.25
2018-02-27T03:18:50.841Z,10.35
2018-02-27T03:21:19.968Z,12.37
2018-02-27T03:23:49.118Z,7.28
2018-02-27T03:26:18.298Z,8.80
2018-02-27T03:28:47.386Z,10.02
2018-02-27T03:31:16.534Z,11.65
2018-02-27T03:33:45.622Z,13.90
2018-02-27T03:36:14.730Z,11.63
2018-02-27T03:38:43.815Z,12.45
2018-02-27T03:41:12.975Z,13.93
2018-02-27T03:43:42.057Z,12.30
2018-02-27T03:46:11.142Z,10.88
2018-02-27T03:48:40.229Z,10.82
2018-02-27T03:51:10.206Z,8.77
2018-02-27T14:18:34.026Z,4.68
2018-02-27T14:21:03.099Z,4.32
2018-02-27T14:23:32.173Z,8.07
2018-02-27T14:26:01.273Z,6.15
2018-02-27T14:28:30.344Z,4.20
2018-02-27T14:30:59.481Z,8.60
2018-02-27T14:33:28.557Z,6.00
2018-02-27T14:35:58.412Z,4.95
2018-02-27T14:38:27.489Z,9.05
2018-02-27T14:40:57.334Z,6.80
2018-02-27T14:43:26.410Z,15.02
2018-02-27T14:45:55.485Z,4.80
2018-02-27T14:49:46.197Z,5.53
2018-02-27T14:52:15.394Z,4.90
2018-02-27T14:54:45.240Z,6.87
2018-02-27T14:57:14.319Z,11.77
2018-02-27T14:59:44.153Z,7.32
2018-02-27T15:02:14.007Z,12.70
2018-02-27T15:04:43.090Z,10.93
2018-02-27T15:07:12.985Z,5.25
2018-02-27T15:09:42.119Z,3.05
2018-02-27T15:12:11.227Z,4.95
2018-02-27T15:14:40.294Z,6.37
2018-02-27T15:17:09.366Z,7.40
2018-02-27T15:19:39.205Z,7.03
2018-02-27T15:22:08.335Z,8.90
2018-02-27T15:24:37.445Z,9.43
2018-02-27T15:27:06.526Z,5.57
2018-02-27T15:29:36.359Z,6.30
2018-02-27T15:32:05.430Z,9.27
2018-02-27T15:34:34.505Z,7.62
2018-02-27T15:37:03.652Z,9.52
2018-02-27T15:39:32.726Z,10.10
2018-02-27T15:42:01.866Z,7.70
2018-02-27T15:44:30.941Z,6.65
2018-02-27T15:47:00.020Z,8.57
2018-02-27T15:49:29.898Z,5.35
2018-02-27T15:51:58.966Z,7.25
2018-02-27T15:54:28.048Z,6.70
2018-02-27T15:56:57.945Z,7.30
2018-02-27T15:59:27.028Z,12.45
2018-02-27T16:01:56.158Z,11.23
2018-02-27T16:04:25.273Z,8.65
2018-02-27T16:06:54.338Z,9.18
2018-02-27T16:09:24.299Z,12.00
2018-02-27T16:11:53.379Z,9.57
2018-02-27T16:14:23.223Z,13.82
2018-02-27T16:16:52.442Z,14.18
2018-02-27T16:19:21.528Z,14.45
2018-02-27T16:21:51.373Z,16.12
2018-02-27T16:24:20.462Z,11.98
2018-02-27T16:26:50.308Z,13.60
2018-02-27T16:29:19.382Z,14.68
2018-02-27T16:31:48.457Z,22.33
2018-02-27T16:34:17.525Z,16.15
2018-02-27T16:36:47.362Z,18.50
2018-02-27T16:39:16.439Z,21.12
2018-02-27T16:41:45.521Z,22.25
2018-02-27T16:44:14.634Z,28.85
2018-02-27T16:46:43.922Z,24.80
2018-02-27T16:49:13.006Z,27.98
2018-02-27T16:51:42.853Z,15.52
2018-02-27T16:54:11.928Z,16.12
2018-02-27T16:56:41.902Z,15.38
2018-02-27T16:59:10.990Z,13.48
2018-02-27T17:01:40.076Z,18.42
2018-02-27T17:04:09.922Z,17.27
2018-02-27T17:06:39.093Z,20.85
2018-02-27T17:09:08.171Z,24.67
2018-02-27T17:11:37.252Z,13.65
2018-02-27T17:14:07.098Z,29.20
2018-02-27T17:16:36.231Z,60.28
2018-02-27T17:19:05.344Z,30.02
2018-02-27T17:21:34.425Z,33.30
2018-02-27T17:24:03.551Z,32.63
2018-02-27T17:26:32.661Z,24.92
2018-02-27T17:29:01.767Z,28.23
2018-02-27T17:31:31.008Z,27.73
2018-02-27T17:34:00.106Z,28.25
2018-02-27T17:36:29.181Z,19.02
2018-02-27T17:38:58.282Z,25.02
2018-02-27T17:41:28.132Z,17.52
2018-02-27T17:43:57.238Z,26.45
2018-02-27T17:46:26.323Z,23.40
2018-02-27T17:48:56.242Z,22.25
2018-02-27T17:51:25.591Z,19.52
2018-02-27T17:53:54.723Z,26.45
2018-02-27T17:56:23.847Z,24.27
2018-02-27T17:58:52.920Z,28.45
2018-02-27T18:01:22.001Z,27.27
2018-02-27T18:03:52.239Z,25.17
2018-02-27T18:06:21.310Z,22.83
2018-02-27T18:08:50.390Z,18.98
2018-02-27T18:11:19.475Z,21.62
2018-02-27T18:13:49.322Z,17.77
2018-02-27T18:16:18.403Z,19.55
2018-02-27T18:18:47.490Z,21.70
2018-02-27T18:21:16.579Z,28.70
2018-02-27T18:23:45.666Z,29.52
2018-02-27T18:26:14.790Z,19.62
2018-02-27T18:28:44.009Z,17.87
2018-02-27T18:31:13.087Z,16.33
2018-02-27T18:33:42.962Z,19.40
2018-02-27T18:36:12.113Z,20.45
2018-02-27T18:38:41.490Z,23.45
2018-02-27T18:41:10.664Z,23.33
2018-02-27T18:43:39.803Z,30.08
2018-02-27T18:46:08.863Z,24.05
2018-02-27T18:48:37.969Z,15.82
2018-02-27T18:51:07.862Z,23.62
2018-02-27T18:53:36.950Z,24.12
2018-02-27T18:56:06.031Z,18.70
2018-02-27T18:58:35.123Z,24.73
2018-02-27T19:01:05.005Z,21.20
2018-02-27T19:03:34.090Z,17.65
2018-02-27T19:06:03.198Z,21.33
2018-02-27T19:08:32.286Z,20.90
2018-02-27T19:11:01.370Z,24.73
2018-02-27T19:13:30.493Z,22.90
2018-02-27T19:15:59.633Z,17.77
2018-02-27T19:18:28.781Z,19.58
2018-02-27T19:20:57.882Z,21.87
2018-02-27T19:23:27.016Z,19.25
2018-02-27T19:25:56.182Z,21.42
2018-02-27T19:28:25.266Z,28.77
2018-02-27T19:30:55.182Z,21.40
2018-02-27T19:33:24.289Z,30.67
2018-02-27T19:35:53.374Z,24.60
2018-02-27T19:38:22.455Z,18.52
2018-02-27T19:40:51.694Z,19.87
2018-02-27T19:43:20.773Z,20.10
2018-02-27T19:45:49.921Z,16.98
2018-02-27T19:48:19.010Z,26.65
2018-02-27T19:50:48.116Z,26.00
2018-02-27T19:53:17.201Z,20.35
2018-02-27T19:55:47.041Z,24.37
2018-02-27T19:58:16.121Z,26.20
2018-02-27T20:00:45.217Z,23.33
2018-02-27T20:03:14.302Z,22.10
2018-02-27T20:05:43.418Z,25.50
2018-02-27T20:08:12.505Z,20.27
2018-02-27T20:10:41.589Z,20.15
2018-02-27T20:13:10.669Z,18.33
2018-02-27T20:15:39.817Z,18.85
2018-02-27T20:18:11.497Z,19.58
2018-02-27T20:20:40.833Z,20.90
2018-02-27T20:23:15.566Z,18.05
2018-02-27T20:25:44.677Z,17.65
2018-02-27T20:28:19.339Z,22.17
2018-02-27T20:30:48.517Z,17.23
2018-02-27T20:33:17.602Z,16.10
2018-02-27T20:35:46.771Z,14.18
2018-02-27T20:38:15.967Z,11.65
2018-02-27T20:40:45.047Z,10.80
2018-02-27T20:43:14.889Z,12.90
2018-02-27T20:45:44.014Z,12.55
2018-02-27T20:48:13.093Z,7.12
2018-02-27T20:50:42.654Z,7.90
2018-02-27T20:53:11.722Z,10.77
2018-02-27T20:55:41.601Z,9.70
2018-02-27T20:58:10.669Z,13.93
2018-02-27T21:00:40.696Z,9.48
2018-02-27T21:03:10.538Z,8.77
2018-02-27T21:05:40.374Z,8.70
2018-02-27T21:08:09.447Z,12.88
2018-02-27T21:10:38.546Z,13.30
2018-02-27T21:13:07.633Z,11.68
2018-02-27T21:15:36.710Z,13.02
2018-02-27T21:18:05.791Z,10.48
2018-02-27T21:20:35.962Z,17.77
2018-02-27T21:23:05.039Z,12.75
2018-02-27T21:25:34.110Z,17.12
2018-02-27T21:28:03.181Z,16.62
2018-02-27T21:30:32.296Z,17.45
2018-02-27T21:33:01.425Z,13.52
2018-02-27T21:35:30.510Z,16.17
2018-02-27T21:37:59.590Z,13.62
2018-02-27T21:40:28.706Z,22.98
2018-02-27T21:42:58.694Z,16.52
2018-02-27T21:45:27.935Z,12.68
2018-02-27T21:47:57.067Z,9.93
2018-02-27T21:50:26.905Z,13.02
2018-02-27T21:52:56.754Z,13.43
2018-02-27T21:55:25.893Z,12.37
2018-02-27T21:57:54.977Z,15.27
2018-02-27T22:00:24.053Z,16.20
2018-02-27T22:02:53.901Z,15.07
2018-02-27T22:05:22.978Z,23.77
2018-02-27T22:07:52.061Z,15.60
2018-02-27T22:10:21.362Z,18.15
2018-02-27T22:12:50.565Z,14.70
2018-02-27T22:15:19.725Z,30.95
2018-02-27T22:17:48.813Z,20.02
2018-02-27T22:20:17.885Z,13.32
2018-02-27T22:22:47.093Z,15.65
2018-02-27T22:25:16.189Z,15.50
2018-02-27T22:27:46.030Z,14.27
2018-02-27T22:30:15.161Z,22.50
2018-02-27T22:32:44.230Z,22.52
2018-02-27T22:35:14.074Z,14.85
2018-02-27T22:37:43.913Z,20.33
2018-02-27T22:40:13.022Z,14.30
2018-02-27T22:42:42.093Z,16.58
2018-02-27T22:45:11.266Z,18.87
2018-02-27T22:47:40.342Z,14.35
2018-02-27T22:50:10.181Z,17.95
2018-02-27T22:52:39.309Z,22.60
2018-02-27T22:55:08.398Z,17.02
2018-02-27T22:57:37.528Z,19.67
2018-02-27T23:00:06.611Z,18.80
2018-02-27T23:02:35.692Z,20.85
2018-02-27T23:05:06.281Z,21.33
2018-02-27T23:07:35.359Z,17.12
2018-02-27T23:10:05.318Z,14.40
2018-02-27T23:12:34.398Z,20.95
2018-02-27T23:15:04.246Z,25.42
2018-02-27T23:17:33.335Z,17.55
2018-02-27T23:20:03.257Z,17.45
2018-02-27T23:22:32.345Z,18.75
2018-02-27T23:25:08.726Z,21.08
2018-02-27T23:27:39.883Z,16.65
2018-02-27T23:30:11.818Z,23.38
2018-02-27T23:32:42.726Z,21.30
2018-02-27T23:35:19.902Z,26.70
2018-02-27T23:37:49.027Z,20.90
2018-02-27T23:40:18.113Z,24.17
2018-02-27T23:42:47.241Z,22.08
2018-02-27T23:45:16.538Z,20.70
2018-02-27T23:47:45.630Z,19.10
2018-02-27T23:50:14.716Z,22.15
2018-02-27T23:52:44.685Z,19.20
2018-02-27T23:55:13.817Z,22.37
2018-02-27T23:57:42.913Z,23.85
